Acton, California
Current Conditions -  °F | °C
As of 2:53 AM on Thursday 23 Oct 2014 (Local Time) from KPMD Reporting Station
Clear Clear  
Wind Chill: 13°   Ceiling: Unl
Heat Index: 13°   Visibility: 10mi
Dew Point:   Wind: 7mph
Humidity: 40%   Direction: 170°S
Pressure: 30.05"   Gusts: NA
Location:  34.47°N, 118.2°W
Report Text: KPMD 230953Z AUTO 17006KT 10SM CLR 13/00 A3005 RMK AO2 SLP156 T01330000
Loading
Personal Weather Stations






























Interactive Weather Map
Tropical Storm Tracking
New forecast layout! Learn more

10-Day Weather Forecast

Advertisements
Track Severe Weather on mobile